Time;durP1;ratioP1;P1;durP2;ratioP2;P2;SDS_P1;SDS_P2;PMS_P1;PMS_P2;Temp;Humidity;BMP_temperature;BMP_pressure;BME280_temperature;BME280_humidity;BME280_pressure;Samples;Min_cycle;Max_cycle;Signal;HPM_P1;HPM_P2
2021/08/25 00:01:17;;;;;;;6.90;2.67;;;;;;;;;;4992168;28;20034;-70
2021/08/25 00:03:44;;;;;;;6.90;2.67;;;;;;;;;;4989506;28;20030;-69
2021/08/25 00:06:10;;;;;;;5.43;2.45;;;;;;;;;;4975476;28;20029;-69
2021/08/25 00:08:36;;;;;;;7.32;2.90;;;;;;;;;;5006007;28;20034;-70
2021/08/25 00:11:02;;;;;;;6.25;2.67;;;;;;;;;;4994621;28;20610;-69
2021/08/25 00:13:27;;;;;;;6.95;2.60;;;;;;;;;;5009519;28;20030;-69
2021/08/25 00:15:53;;;;;;;6.93;2.42;;;;;;;;;;5012000;28;20029;-70
2021/08/25 00:18:19;;;;;;;6.75;2.78;;;;;;;;;;4997593;28;20038;-69
2021/08/25 00:20:44;;;;;;;5.40;2.33;;;;;;;;;;4996970;28;20084;-69
2021/08/25 00:23:09;;;;;;;5.68;2.53;;;;;;;;;;5005381;28;20030;-69
2021/08/25 00:25:35;;;;;;;6.03;2.70;;;;;;;;;;5011699;28;20382;-69
2021/08/25 00:28:01;;;;;;;5.15;2.22;;;;;;;;;;4990834;28;20065;-69
2021/08/25 00:30:27;;;;;;;7.18;3.08;;;;;;;;;;4992427;28;20026;-69
2021/08/25 00:32:52;;;;;;;6.53;2.28;;;;;;;;;;5010657;28;20037;-69
2021/08/25 00:35:18;;;;;;;5.38;2.60;;;;;;;;;;5011092;28;20093;-69
2021/08/25 00:37:44;;;;;;;13.25;3.17;;;;;;;;;;5011056;28;20040;-69
2021/08/25 00:40:10;;;;;;;6.00;2.60;;;;;;;;;;5011057;28;20111;-69
2021/08/25 00:42:36;;;;;;;4.35;2.28;;;;;;;;;;5011474;28;20029;-69
2021/08/25 00:45:06;;;;;;;7.07;2.40;;;;;;;;;;4978867;28;20602;-70
2021/08/25 00:47:36;;;;;;;5.53;2.38;;;;;;;;;;5008121;28;20095;-69
2021/08/25 00:50:02;;;;;;;5.82;2.42;;;;;;;;;;5011360;28;20540;-69
2021/08/25 00:52:27;;;;;;;7.45;2.17;;;;;;;;;;5011052;28;20030;-70
2021/08/25 00:54:54;;;;;;;5.28;2.60;;;;;;;;;;5011267;28;20525;-70
2021/08/25 00:57:20;;;;;;;5.22;2.70;;;;;;;;;;5011452;28;20105;-70
2021/08/25 00:59:45;;;;;;;5.95;2.40;;;;;;;;;;5010885;28;20356;-70
2021/08/25 01:02:22;;;;;;;4.95;2.45;;;;;;;;;;4992834;28;20033;-70
2021/08/25 01:04:57;;;;;;;6.03;2.60;;;;;;;;;;5004187;28;20117;-70
2021/08/25 01:07:24;;;;;;;5.78;2.70;;;;;;;;;;5010390;28;20049;-71
2021/08/25 01:09:53;;;;;;;5.18;2.20;;;;;;;;;;5000009;28;20029;-70
2021/08/25 01:12:23;;;;;;;5.32;2.28;;;;;;;;;;4991683;28;20030;-70
2021/08/25 01:14:49;;;;;;;5.50;2.80;;;;;;;;;;4998312;28;20052;-70
2021/08/25 01:17:27;;;;;;;4.35;2.25;;;;;;;;;;5025699;28;20029;-70
2021/08/25 01:20:04;;;;;;;5.07;2.55;;;;;;;;;;5027649;28;20068;-70
2021/08/25 01:22:30;;;;;;;5.82;2.58;;;;;;;;;;5010898;28;20030;-70
2021/08/25 01:24:57;;;;;;;3.85;2.05;;;;;;;;;;5011145;28;20044;-70
2021/08/25 01:27:26;;;;;;;4.63;2.28;;;;;;;;;;5010950;28;20038;-70
2021/08/25 01:29:52;;;;;;;4.93;2.33;;;;;;;;;;5011062;28;20030;-70
2021/08/25 01:32:18;;;;;;;5.20;2.20;;;;;;;;;;4993940;28;20057;-70
2021/08/25 01:34:55;;;;;;;6.18;2.30;;;;;;;;;;5010756;28;20030;-70
2021/08/25 01:37:28;;;;;;;4.70;2.08;;;;;;;;;;5010580;28;20034;-70
2021/08/25 01:39:54;;;;;;;6.60;2.40;;;;;;;;;;5009160;28;20034;-70
2021/08/25 01:42:20;;;;;;;5.65;2.40;;;;;;;;;;5010793;28;20084;-71
2021/08/25 01:44:47;;;;;;;6.68;2.80;;;;;;;;;;5010415;28;20367;-70
2021/08/25 01:47:16;;;;;;;7.65;2.55;;;;;;;;;;5010963;28;20475;-71
2021/08/25 01:49:43;;;;;;;10.30;3.25;;;;;;;;;;5010865;28;20105;-71
2021/08/25 01:52:09;;;;;;;5.40;2.40;;;;;;;;;;5011891;28;20068;-70
2021/08/25 01:54:35;;;;;;;4.70;2.22;;;;;;;;;;5005491;28;20062;-69
2021/08/25 01:57:00;;;;;;;4.75;2.25;;;;;;;;;;5011500;28;20038;-69
2021/08/25 01:59:26;;;;;;;6.03;2.40;;;;;;;;;;5014328;28;20540;-70
2021/08/25 02:01:51;;;;;;;4.97;2.08;;;;;;;;;;5014627;28;20053;-70
2021/08/25 02:04:17;;;;;;;3.92;2.40;;;;;;;;;;4999554;28;20360;-70
2021/08/25 02:06:42;;;;;;;6.32;2.45;;;;;;;;;;4998589;28;20050;-69
2021/08/25 02:09:08;;;;;;;7.03;2.22;;;;;;;;;;5011375;28;20327;-70
2021/08/25 02:11:33;;;;;;;4.05;2.28;;;;;;;;;;5005453;28;20040;-70
2021/08/25 02:13:59;;;;;;;7.45;2.33;;;;;;;;;;4994941;28;20029;-69
2021/08/25 02:16:24;;;;;;;4.50;2.10;;;;;;;;;;4994629;28;20475;-70
2021/08/25 02:18:50;;;;;;;3.55;2.10;;;;;;;;;;4995866;28;20116;-70
2021/08/25 02:21:16;;;;;;;4.75;2.17;;;;;;;;;;5017506;28;20086;-70
2021/08/25 02:23:41;;;;;;;4.47;2.15;;;;;;;;;;5015630;28;20030;-70
2021/08/25 02:26:07;;;;;;;4.45;2.17;;;;;;;;;;5013988;28;20135;-70
2021/08/25 02:28:32;;;;;;;6.85;2.25;;;;;;;;;;5013728;28;20065;-70
2021/08/25 02:30:58;;;;;;;5.05;2.20;;;;;;;;;;4996492;28;20463;-70
2021/08/25 02:33:24;;;;;;;4.07;1.98;;;;;;;;;;5004802;28;20022;-70
2021/08/25 02:35:49;;;;;;;3.88;2.10;;;;;;;;;;5014040;28;20041;-70
2021/08/25 02:38:15;;;;;;;5.78;2.03;;;;;;;;;;4999109;28;20390;-70
2021/08/25 02:40:41;;;;;;;4.82;2.10;;;;;;;;;;4994095;28;20062;-70
2021/08/25 02:43:07;;;;;;;4.90;2.10;;;;;;;;;;5008463;28;20112;-70
2021/08/25 02:45:32;;;;;;;4.50;2.00;;;;;;;;;;4996731;28;20113;-70
2021/08/25 02:47:58;;;;;;;4.35;2.30;;;;;;;;;;4994247;28;20028;-70
2021/08/25 02:50:23;;;;;;;6.20;2.47;;;;;;;;;;4998015;28;20010;-70
2021/08/25 02:52:49;;;;;;;5.57;2.25;;;;;;;;;;5001641;28;20061;-70
2021/08/25 02:55:14;;;;;;;4.18;1.92;;;;;;;;;;5012895;28;20034;-70
2021/08/25 02:57:40;;;;;;;4.68;1.95;;;;;;;;;;5013421;28;20451;-70
2021/08/25 03:00:06;;;;;;;5.65;2.10;;;;;;;;;;5013807;28;20489;-70
2021/08/25 03:02:32;;;;;;;4.68;2.17;;;;;;;;;;5013517;28;20025;-70
2021/08/25 03:04:57;;;;;;;3.55;2.10;;;;;;;;;;5011767;28;20026;-70
2021/08/25 03:07:22;;;;;;;6.40;2.30;;;;;;;;;;5012779;28;20103;-70
2021/08/25 03:09:48;;;;;;;6.70;2.50;;;;;;;;;;5013177;28;20021;-70
2021/08/25 03:12:13;;;;;;;5.43;1.80;;;;;;;;;;5013061;28;20489;-69
2021/08/25 03:14:39;;;;;;;4.28;2.00;;;;;;;;;;5003412;28;20414;-70
2021/08/25 03:17:05;;;;;;;4.32;1.90;;;;;;;;;;4999823;28;20037;-69
2021/08/25 03:19:30;;;;;;;5.18;1.98;;;;;;;;;;4993794;28;20080;-69
2021/08/25 03:21:56;;;;;;;6.13;2.10;;;;;;;;;;4993530;28;20029;-70
2021/08/25 03:24:21;;;;;;;5.57;2.15;;;;;;;;;;4997217;28;20068;-70
2021/08/25 03:26:47;;;;;;;5.35;1.90;;;;;;;;;;5024233;28;20029;-70
2021/08/25 03:29:12;;;;;;;3.45;2.13;;;;;;;;;;5025917;28;20132;-70
2021/08/25 03:31:38;;;;;;;6.35;2.10;;;;;;;;;;5012843;28;20029;-70
2021/08/25 03:34:03;;;;;;;5.97;2.30;;;;;;;;;;5012698;28;20108;-69
2021/08/25 03:36:29;;;;;;;4.90;2.97;;;;;;;;;;5012791;28;20032;-69
2021/08/25 03:38:54;;;;;;;7.13;2.40;;;;;;;;;;5012150;28;20030;-69
2021/08/25 03:41:20;;;;;;;4.60;2.25;;;;;;;;;;5012816;28;20018;-69
2021/08/25 03:43:45;;;;;;;6.20;2.03;;;;;;;;;;5012855;28;20108;-68
2021/08/25 03:46:13;;;;;;;4.45;2.20;;;;;;;;;;5004131;28;20105;-69
2021/08/25 03:48:39;;;;;;;4.93;2.15;;;;;;;;;;4994190;28;20022;-70
2021/08/25 03:51:04;;;;;;;5.00;2.38;;;;;;;;;;5007412;28;20525;-69
2021/08/25 03:53:29;;;;;;;4.40;1.95;;;;;;;;;;4999879;28;20454;-70
2021/08/25 03:55:55;;;;;;;6.85;2.10;;;;;;;;;;5012326;28;20033;-68
2021/08/25 03:58:20;;;;;;;6.10;2.50;;;;;;;;;;5012767;28;20017;-70
2021/08/25 04:00:46;;;;;;;4.03;2.45;;;;;;;;;;5012959;28;20037;-70
2021/08/25 04:03:11;;;;;;;5.10;2.67;;;;;;;;;;4995819;28;20072;-69
2021/08/25 04:05:37;;;;;;;3.65;2.20;;;;;;;;;;5013136;28;20029;-70
2021/08/25 04:08:02;;;;;;;4.43;2.30;;;;;;;;;;5013241;28;20046;-70
2021/08/25 04:10:28;;;;;;;3.65;2.22;;;;;;;;;;5012644;28;20022;-70
2021/08/25 04:12:54;;;;;;;4.50;2.33;;;;;;;;;;5010557;28;20025;-71
2021/08/25 04:15:20;;;;;;;5.97;2.20;;;;;;;;;;5011989;28;20025;-69
2021/08/25 04:17:45;;;;;;;4.18;2.05;;;;;;;;;;5012948;28;20160;-69
2021/08/25 04:20:11;;;;;;;4.50;2.22;;;;;;;;;;4998720;28;20058;-71
2021/08/25 04:22:37;;;;;;;5.22;2.13;;;;;;;;;;4993212;28;20105;-71
2021/08/25 04:25:03;;;;;;;4.93;2.10;;;;;;;;;;5011424;28;20544;-69
2021/08/25 04:27:29;;;;;;;5.95;2.60;;;;;;;;;;5012770;28;20083;-70
2021/08/25 04:29:54;;;;;;;8.85;2.60;;;;;;;;;;5012734;28;20093;-69
2021/08/25 04:32:19;;;;;;;4.30;2.03;;;;;;;;;;5011077;28;20478;-69
2021/08/25 04:34:45;;;;;;;5.88;2.20;;;;;;;;;;5011532;28;20034;-69
2021/08/25 04:37:10;;;;;;;6.13;2.50;;;;;;;;;;5011591;28;20060;-69
2021/08/25 04:39:36;;;;;;;4.38;2.40;;;;;;;;;;5016863;28;20071;-69
2021/08/25 04:42:01;;;;;;;5.50;2.47;;;;;;;;;;5031411;28;20025;-69
2021/08/25 04:44:27;;;;;;;4.32;2.20;;;;;;;;;;5023031;28;20028;-70
2021/08/25 04:46:52;;;;;;;5.68;2.03;;;;;;;;;;5011666;28;20474;-70
2021/08/25 04:49:18;;;;;;;6.32;2.10;;;;;;;;;;5011710;28;20100;-70
2021/08/25 04:51:43;;;;;;;5.45;2.22;;;;;;;;;;5018528;28;20048;-70
2021/08/25 04:54:09;;;;;;;6.05;2.30;;;;;;;;;;5008297;28;20033;-69
2021/08/25 04:56:34;;;;;;;5.38;1.70;;;;;;;;;;5009006;28;20129;-70
2021/08/25 04:58:59;;;;;;;3.45;1.95;;;;;;;;;;5010871;28;20505;-70
2021/08/25 05:01:25;;;;;;;4.47;2.05;;;;;;;;;;5011427;28;20101;-69
2021/08/25 05:03:50;;;;;;;4.80;1.95;;;;;;;;;;5010603;28;20026;-70
2021/08/25 05:06:17;;;;;;;5.68;2.05;;;;;;;;;;5002560;28;20044;-70
2021/08/25 05:08:43;;;;;;;6.50;2.20;;;;;;;;;;5010921;28;20033;-69
2021/08/25 05:11:09;;;;;;;5.03;2.03;;;;;;;;;;5010600;28;20109;-69
2021/08/25 05:13:38;;;;;;;6.18;2.70;;;;;;;;;;5011111;28;20026;-69
2021/08/25 05:16:12;;;;;;;5.70;2.08;;;;;;;;;;5011191;28;20037;-69
2021/08/25 05:18:41;;;;;;;4.30;2.30;;;;;;;;;;5011038;28;20021;-69
2021/08/25 05:21:07;;;;;;;4.32;2.00;;;;;;;;;;4984948;28;20494;-70
2021/08/25 05:23:33;;;;;;;4.03;2.00;;;;;;;;;;4991402;28;20069;-70
2021/08/25 05:25:59;;;;;;;4.43;2.17;;;;;;;;;;4991229;28;20050;-69
2021/08/25 05:28:24;;;;;;;3.13;1.85;;;;;;;;;;4990963;28;20049;-68
2021/08/25 05:30:50;;;;;;;6.70;2.05;;;;;;;;;;4995796;28;20156;-68
2021/08/25 05:33:16;;;;;;;6.07;1.80;;;;;;;;;;5011043;28;20022;-69
2021/08/25 05:35:41;;;;;;;3.15;1.40;;;;;;;;;;5010706;28;20037;-71
2021/08/25 05:38:06;;;;;;;3.58;1.60;;;;;;;;;;5011064;28;20022;-68
2021/08/25 05:40:32;;;;;;;6.65;2.30;;;;;;;;;;5010452;28;20068;-69
2021/08/25 05:42:58;;;;;;;6.13;1.90;;;;;;;;;;5011005;28;20022;-69
2021/08/25 05:45:24;;;;;;;7.15;1.75;;;;;;;;;;5010926;28;20057;-69
2021/08/25 05:47:50;;;;;;;4.88;2.00;;;;;;;;;;5005920;28;20026;-69
2021/08/25 05:50:15;;;;;;;6.93;2.00;;;;;;;;;;5021652;28;20025;-68
2021/08/25 05:52:41;;;;;;;6.55;2.75;;;;;;;;;;5010711;28;20113;-68
2021/08/25 05:55:07;;;;;;;3.10;1.65;;;;;;;;;;5010178;28;20033;-69
2021/08/25 05:57:32;;;;;;;7.18;2.00;;;;;;;;;;5009898;28;20030;-69
2021/08/25 05:59:58;;;;;;;4.80;2.00;;;;;;;;;;5010477;28;20524;-68
2021/08/25 06:02:23;;;;;;;3.58;1.65;;;;;;;;;;5010733;28;20037;-68
2021/08/25 06:04:49;;;;;;;4.80;1.90;;;;;;;;;;5010413;28;20073;-69
2021/08/25 06:07:15;;;;;;;5.82;1.85;;;;;;;;;;5010071;28;20058;-69
2021/08/25 06:09:40;;;;;;;4.57;2.05;;;;;;;;;;5010825;28;20402;-69
2021/08/25 06:12:06;;;;;;;6.28;2.10;;;;;;;;;;5009429;28;20026;-70
2021/08/25 06:14:32;;;;;;;6.07;2.10;;;;;;;;;;5010506;28;20064;-69
2021/08/25 06:16:58;;;;;;;7.80;2.45;;;;;;;;;;5010756;28;20414;-69
2021/08/25 06:19:23;;;;;;;5.47;2.00;;;;;;;;;;5010611;28;20374;-70
2021/08/25 06:21:49;;;;;;;3.97;1.90;;;;;;;;;;5009775;28;20421;-69
2021/08/25 06:24:15;;;;;;;4.53;2.03;;;;;;;;;;5010695;28;20022;-69
2021/08/25 06:26:42;;;;;;;4.65;1.95;;;;;;;;;;5010414;28;20053;-69
2021/08/25 06:29:07;;;;;;;5.22;1.95;;;;;;;;;;5010392;28;20034;-69
2021/08/25 06:31:33;;;;;;;5.47;1.95;;;;;;;;;;5010300;28;20033;-69
2021/08/25 06:33:58;;;;;;;6.00;2.13;;;;;;;;;;5006899;28;20483;-69
2021/08/25 06:36:25;;;;;;;5.00;1.70;;;;;;;;;;5010539;28;20033;-70
2021/08/25 06:38:50;;;;;;;6.88;1.95;;;;;;;;;;5012361;28;20025;-69
2021/08/25 06:41:16;;;;;;;3.83;1.80;;;;;;;;;;5013023;28;20032;-69
2021/08/25 06:43:42;;;;;;;10.23;2.00;;;;;;;;;;5013664;28;20359;-69
2021/08/25 06:46:08;;;;;;;4.70;1.40;;;;;;;;;;5013852;28;20502;-69
2021/08/25 06:48:34;;;;;;;4.90;1.50;;;;;;;;;;5014054;28;20390;-69
2021/08/25 06:50:59;;;;;;;3.50;1.60;;;;;;;;;;5013229;28;20021;-69
2021/08/25 06:53:25;;;;;;;4.00;1.70;;;;;;;;;;5014176;28;20030;-69
2021/08/25 06:55:50;;;;;;;4.70;1.48;;;;;;;;;;5014317;28;20028;-70
2021/08/25 06:58:16;;;;;;;4.57;1.65;;;;;;;;;;4995487;28;20758;-70
2021/08/25 07:00:42;;;;;;;7.20;2.03;;;;;;;;;;5013753;28;20117;-71
2021/08/25 07:03:08;;;;;;;4.57;1.70;;;;;;;;;;4993326;28;20370;-67
2021/08/25 07:05:33;;;;;;;5.40;1.60;;;;;;;;;;5012768;28;20037;-68
2021/08/25 07:08:00;;;;;;;5.57;1.30;;;;;;;;;;5013365;28;20402;-69
2021/08/25 07:10:26;;;;;;;5.13;1.70;;;;;;;;;;5013084;28;20096;-70
2021/08/25 07:12:52;;;;;;;6.05;1.70;;;;;;;;;;5013894;28;20432;-71
2021/08/25 07:15:18;;;;;;;5.72;2.05;;;;;;;;;;5014096;28;20037;-71
2021/08/25 07:17:45;;;;;;;5.03;1.63;;;;;;;;;;5016396;28;20454;-71
2021/08/25 07:20:12;;;;;;;5.03;1.67;;;;;;;;;;5016327;28;20521;-71
2021/08/25 07:22:38;;;;;;;4.43;1.65;;;;;;;;;;5013113;28;20406;-68
2021/08/25 07:25:05;;;;;;;5.43;1.80;;;;;;;;;;5013423;28;20026;-69
2021/08/25 07:27:31;;;;;;;4.55;1.60;;;;;;;;;;5013383;28;20041;-69
2021/08/25 07:29:57;;;;;;;4.07;1.90;;;;;;;;;;5012956;28;20033;-71
2021/08/25 07:32:22;;;;;;;5.53;2.20;;;;;;;;;;5012858;28;20355;-68
2021/08/25 07:34:48;;;;;;;7.18;2.30;;;;;;;;;;5013006;28;20033;-67
2021/08/25 07:37:14;;;;;;;4.63;2.00;;;;;;;;;;4995498;28;20084;-67
2021/08/25 07:39:39;;;;;;;5.25;1.98;;;;;;;;;;5013136;28;20727;-67
2021/08/25 07:42:05;;;;;;;4.22;2.05;;;;;;;;;;5012293;28;20478;-67
2021/08/25 07:44:30;;;;;;;4.93;2.05;;;;;;;;;;5012571;28;20535;-67
2021/08/25 07:46:56;;;;;;;6.25;2.67;;;;;;;;;;5012080;28;20029;-68
2021/08/25 07:49:23;;;;;;;7.45;2.88;;;;;;;;;;5012939;28;20097;-67
2021/08/25 07:51:49;;;;;;;5.35;2.13;;;;;;;;;;5012929;28;20018;-66
2021/08/25 07:54:15;;;;;;;4.70;2.08;;;;;;;;;;5013141;28;20050;-68
2021/08/25 07:56:41;;;;;;;5.43;2.35;;;;;;;;;;5011927;28;20060;-68
2021/08/25 07:59:06;;;;;;;8.57;3.17;;;;;;;;;;5012384;28;20355;-69
2021/08/25 08:01:33;;;;;;;9.32;2.70;;;;;;;;;;5013249;28;20119;-68
2021/08/25 08:03:59;;;;;;;6.00;2.40;;;;;;;;;;4992338;28;20033;-69
2021/08/25 08:06:25;;;;;;;5.95;2.38;;;;;;;;;;5012731;28;20041;-68
2021/08/25 08:08:50;;;;;;;5.40;2.28;;;;;;;;;;5012459;28;20026;-68
2021/08/25 08:11:16;;;;;;;5.43;2.28;;;;;;;;;;5016923;28;20076;-68
2021/08/25 08:13:41;;;;;;;7.22;2.85;;;;;;;;;;5012865;28;20108;-67
2021/08/25 08:16:08;;;;;;;5.00;2.40;;;;;;;;;;5007496;28;20113;-67
2021/08/25 08:18:36;;;;;;;5.32;2.22;;;;;;;;;;5011625;28;20030;-67
2021/08/25 08:21:03;;;;;;;6.40;2.65;;;;;;;;;;5010885;28;20478;-68
2021/08/25 08:23:29;;;;;;;7.13;3.05;;;;;;;;;;5011414;28;20449;-68
2021/08/25 08:25:55;;;;;;;7.93;3.22;;;;;;;;;;5000992;28;20448;-69
2021/08/25 08:28:21;;;;;;;10.40;3.00;;;;;;;;;;5011553;28;20026;-67
2021/08/25 08:30:46;;;;;;;10.93;3.63;;;;;;;;;;5012230;28;20080;-67
2021/08/25 08:33:12;;;;;;;7.07;2.90;;;;;;;;;;5012429;28;20029;-69
2021/08/25 08:35:37;;;;;;;6.72;3.22;;;;;;;;;;5012119;28;20028;-68
2021/08/25 08:38:07;;;;;;;10.82;3.50;;;;;;;;;;5012366;28;20432;-67
2021/08/25 08:40:33;;;;;;;10.82;3.38;;;;;;;;;;5009827;28;20030;-67
2021/08/25 08:43:06;;;;;;;8.00;3.58;;;;;;;;;;5011077;28;20414;-68
2021/08/25 08:45:41;;;;;;;9.05;3.38;;;;;;;;;;5012032;28;20632;-68
2021/08/25 08:48:08;;;;;;;10.30;3.55;;;;;;;;;;5012250;28;20108;-67
2021/08/25 08:50:36;;;;;;;8.52;3.13;;;;;;;;;;5011132;28;20524;-69
2021/08/25 08:53:02;;;;;;;12.55;3.80;;;;;;;;;;5009415;28;20034;-67
2021/08/25 08:55:28;;;;;;;12.48;4.20;;;;;;;;;;5011551;28;20069;-66
2021/08/25 08:57:53;;;;;;;9.20;4.50;;;;;;;;;;5009521;28;20498;-67
2021/08/25 09:00:19;;;;;;;11.13;3.80;;;;;;;;;;5012155;28;20489;-66
2021/08/25 09:02:46;;;;;;;9.38;4.30;;;;;;;;;;5012164;28;20057;-66
2021/08/25 09:05:19;;;;;;;13.70;3.55;;;;;;;;;;5010524;28;20026;-68
2021/08/25 09:07:51;;;;;;;9.63;3.67;;;;;;;;;;5010377;28;20068;-67
2021/08/25 09:10:44;;;;;;;9.50;4.03;;;;;;;;;;5011373;28;20100;-68
2021/08/25 09:13:11;;;;;;;9.35;3.58;;;;;;;;;;5007776;28;20064;-68
2021/08/25 09:15:40;;;;;;;14.05;4.65;;;;;;;;;;5011498;28;20430;-67
2021/08/25 09:18:09;;;;;;;11.82;3.88;;;;;;;;;;5011299;28;20034;-69
2021/08/25 09:20:46;;;;;;;12.60;3.90;;;;;;;;;;5010777;28;20033;-66
2021/08/25 09:23:18;;;;;;;8.43;4.20;;;;;;;;;;5008433;28;20096;-66
2021/08/25 09:25:49;;;;;;;9.38;3.20;;;;;;;;;;5010496;28;20072;-67
2021/08/25 09:28:17;;;;;;;9.68;3.22;;;;;;;;;;5010921;28;20363;-67
2021/08/25 09:31:00;;;;;;;7.28;3.20;;;;;;;;;;5010442;28;20525;-68
2021/08/25 09:33:28;;;;;;;9.05;3.13;;;;;;;;;;5010552;28;20087;-66
2021/08/25 09:35:59;;;;;;;10.13;2.92;;;;;;;;;;5010842;28;20037;-67
2021/08/25 09:38:26;;;;;;;7.07;2.75;;;;;;;;;;5008033;28;20022;-67
2021/08/25 09:41:20;;;;;;;8.48;2.95;;;;;;;;;;5010848;28;20509;-66
2021/08/25 09:43:48;;;;;;;9.50;3.97;;;;;;;;;;5002914;28;20072;-65
2021/08/25 09:46:18;;;;;;;9.00;3.35;;;;;;;;;;5010720;28;20121;-66
2021/08/25 09:48:53;;;;;;;5.97;2.85;;;;;;;;;;5010330;28;20037;-66
2021/08/25 09:51:26;;;;;;;8.50;3.20;;;;;;;;;;5011552;28;20029;-67
2021/08/25 09:54:07;;;;;;;7.88;2.92;;;;;;;;;;5011384;28;20058;-68
2021/08/25 09:56:35;;;;;;;7.15;2.95;;;;;;;;;;5010504;28;20034;-67
2021/08/25 09:59:02;;;;;;;6.93;2.47;;;;;;;;;;5009541;28;20026;-67
2021/08/25 10:01:28;;;;;;;6.75;2.78;;;;;;;;;;5010509;28;20030;-69
2021/08/25 10:03:55;;;;;;;6.38;3.30;;;;;;;;;;5010145;28;20037;-70
2021/08/25 10:06:23;;;;;;;8.70;3.13;;;;;;;;;;5010573;28;20133;-71
2021/08/25 10:08:49;;;;;;;9.10;3.75;;;;;;;;;;5010419;28;20113;-67
2021/08/25 10:11:18;;;;;;;8.13;4.00;;;;;;;;;;5009942;28;20079;-68
2021/08/25 10:13:43;;;;;;;12.15;4.68;;;;;;;;;;5012087;28;20048;-68
2021/08/25 10:16:14;;;;;;;11.43;4.45;;;;;;;;;;5008126;28;20022;-67
2021/08/25 10:18:43;;;;;;;10.65;5.35;;;;;;;;;;5014345;28;20025;-69
2021/08/25 10:21:33;;;;;;;8.82;4.95;;;;;;;;;;5014693;28;20084;-67
2021/08/25 10:24:02;;;;;;;9.90;5.13;;;;;;;;;;5007103;28;20458;-68
2021/08/25 10:26:29;;;;;;;10.23;4.45;;;;;;;;;;5014471;28;20794;-67
2021/08/25 10:29:07;;;;;;;9.45;4.28;;;;;;;;;;5006579;28;20096;-67
2021/08/25 10:31:54;;;;;;;9.45;4.70;;;;;;;;;;5009444;28;20108;-66
2021/08/25 10:34:21;;;;;;;14.48;5.43;;;;;;;;;;5006324;28;20022;-68
2021/08/25 10:36:47;;;;;;;11.00;5.30;;;;;;;;;;5013724;28;20025;-69
2021/08/25 10:39:31;;;;;;;11.35;5.22;;;;;;;;;;5012731;28;20234;-69
2021/08/25 10:41:58;;;;;;;9.02;5.13;;;;;;;;;;5013730;28;20685;-69
2021/08/25 10:44:46;;;;;;;11.15;5.15;;;;;;;;;;5013005;28;20057;-69
2021/08/25 10:47:14;;;;;;;11.07;5.50;;;;;;;;;;5013764;28;20018;-69
2021/08/25 10:49:45;;;;;;;10.95;5.20;;;;;;;;;;5010644;28;20520;-68
2021/08/25 10:52:13;;;;;;;12.25;5.38;;;;;;;;;;5011820;28;20115;-66
2021/08/25 10:54:50;;;;;;;11.90;5.03;;;;;;;;;;5012032;28;20045;-66
2021/08/25 10:57:17;;;;;;;10.50;5.13;;;;;;;;;;5010282;28;20029;-67
2021/08/25 10:59:43;;;;;;;11.35;4.60;;;;;;;;;;5013597;28;20033;-67
2021/08/25 11:02:11;;;;;;;9.27;4.47;;;;;;;;;;5013651;28;20037;-68
2021/08/25 11:04:36;;;;;;;7.97;4.32;;;;;;;;;;5012315;28;20117;-66
2021/08/25 11:07:09;;;;;;;9.27;4.40;;;;;;;;;;5012906;28;20605;-68
2021/08/25 11:09:45;;;;;;;8.35;4.43;;;;;;;;;;5013317;28;20026;-65
2021/08/25 11:12:18;;;;;;;9.05;4.35;;;;;;;;;;5012973;28;20021;-66
2021/08/25 11:14:47;;;;;;;7.90;3.80;;;;;;;;;;5012786;28;20386;-70
2021/08/25 11:17:21;;;;;;;8.43;3.78;;;;;;;;;;5012517;28;20382;-71
2021/08/25 11:19:53;;;;;;;7.15;3.85;;;;;;;;;;5013411;28;20018;-68
2021/08/25 11:22:31;;;;;;;8.65;4.00;;;;;;;;;;5013315;28;20078;-70
2021/08/25 11:24:57;;;;;;;9.55;4.28;;;;;;;;;;5012353;28;20061;-68
2021/08/25 11:27:37;;;;;;;5.25;3.03;;;;;;;;;;5012229;28;20057;-67
2021/08/25 11:30:18;;;;;;;8.40;3.47;;;;;;;;;;5008383;28;20061;-66
2021/08/25 11:32:51;;;;;;;7.32;3.70;;;;;;;;;;5012894;28;20034;-67
2021/08/25 11:35:32;;;;;;;8.73;3.40;;;;;;;;;;5012849;28;20030;-70
2021/08/25 11:38:01;;;;;;;6.80;3.30;;;;;;;;;;4994912;28;20033;-67
2021/08/25 11:40:28;;;;;;;8.23;3.88;;;;;;;;;;5012113;28;20374;-66
2021/08/25 11:42:54;;;;;;;7.00;3.60;;;;;;;;;;5012661;28;20160;-66
2021/08/25 11:45:33;;;;;;;7.85;3.90;;;;;;;;;;5020523;28;20116;-67
2021/08/25 11:48:00;;;;;;;10.02;3.97;;;;;;;;;;5019540;28;20026;-69
2021/08/25 11:50:29;;;;;;;9.77;3.70;;;;;;;;;;5013187;28;20021;-68
2021/08/25 11:52:55;;;;;;;9.85;4.45;;;;;;;;;;5013249;28;20072;-68
2021/08/25 11:55:21;;;;;;;6.97;4.00;;;;;;;;;;5012825;28;20029;-71
2021/08/25 11:57:56;;;;;;;9.35;4.00;;;;;;;;;;5013384;28;20026;-67
2021/08/25 12:00:24;;;;;;;8.13;4.05;;;;;;;;;;5012519;28;20053;-67
2021/08/25 12:02:55;;;;;;;9.65;4.07;;;;;;;;;;5005646;28;20108;-66
2021/08/25 12:05:21;;;;;;;9.57;3.72;;;;;;;;;;5011819;28;20025;-67
2021/08/25 12:08:08;;;;;;;9.40;4.22;;;;;;;;;;5012102;28;20053;-67
2021/08/25 12:10:39;;;;;;;8.00;3.33;;;;;;;;;;5011194;28;20018;-67
2021/08/25 12:13:05;;;;;;;5.95;3.10;;;;;;;;;;5010550;28;20030;-67
2021/08/25 12:15:51;;;;;;;5.80;3.17;;;;;;;;;;5024135;28;20413;-68
2021/08/25 12:18:27;;;;;;;6.22;3.42;;;;;;;;;;5029953;28;20096;-68
2021/08/25 12:21:06;;;;;;;11.05;3.80;;;;;;;;;;5010385;28;20497;-69
2021/08/25 12:23:32;;;;;;;6.80;3.50;;;;;;;;;;5011825;28;20038;-68
2021/08/25 12:25:58;;;;;;;8.20;3.63;;;;;;;;;;5011805;28;20129;-67
2021/08/25 12:28:39;;;;;;;7.13;3.92;;;;;;;;;;5012058;28;20061;-68
2021/08/25 12:31:13;;;;;;;8.50;4.25;;;;;;;;;;5013790;28;20022;-68
2021/08/25 12:33:39;;;;;;;8.95;3.85;;;;;;;;;;5011890;28;20033;-69
2021/08/25 12:36:21;;;;;;;7.70;3.10;;;;;;;;;;5009966;28;20056;-67
2021/08/25 12:38:49;;;;;;;7.53;3.55;;;;;;;;;;4999147;28;20021;-68
2021/08/25 12:41:14;;;;;;;7.65;3.28;;;;;;;;;;5011544;28;20034;-68
2021/08/25 12:43:40;;;;;;;4.40;2.67;;;;;;;;;;5010852;28;20432;-68
2021/08/25 12:46:05;;;;;;;6.35;3.05;;;;;;;;;;5013962;28;20022;-68
2021/08/25 12:48:31;;;;;;;5.10;2.72;;;;;;;;;;5011951;28;20037;-68
2021/08/25 12:50:56;;;;;;;5.97;3.15;;;;;;;;;;5011125;28;20018;-67
2021/08/25 12:53:22;;;;;;;7.25;3.15;;;;;;;;;;5010426;28;20042;-67
2021/08/25 12:55:47;;;;;;;5.60;2.58;;;;;;;;;;5011380;28;20096;-70
2021/08/25 12:58:13;;;;;;;5.45;2.75;;;;;;;;;;5011639;28;20034;-68
2021/08/25 13:00:38;;;;;;;5.85;2.92;;;;;;;;;;5011935;28;20109;-67
2021/08/25 13:03:05;;;;;;;6.70;3.45;;;;;;;;;;5012214;28;20079;-69
2021/08/25 13:05:31;;;;;;;4.15;2.80;;;;;;;;;;5011855;28;20026;-67
2021/08/25 13:07:57;;;;;;;5.85;2.83;;;;;;;;;;5011114;28;20125;-67
2021/08/25 13:10:22;;;;;;;9.13;2.95;;;;;;;;;;5012085;28;20022;-69
2021/08/25 13:12:47;;;;;;;6.22;3.05;;;;;;;;;;5012475;28;20081;-68
2021/08/25 13:15:13;;;;;;;7.97;3.22;;;;;;;;;;5012095;28;20481;-69
2021/08/25 13:17:38;;;;;;;8.50;3.00;;;;;;;;;;5020540;28;20056;-71
2021/08/25 13:20:05;;;;;;;4.50;2.63;;;;;;;;;;5011254;28;20045;-69
2021/08/25 13:22:30;;;;;;;7.88;2.92;;;;;;;;;;5011625;28;20025;-68
2021/08/25 13:24:56;;;;;;;5.80;2.60;;;;;;;;;;5010833;28;20482;-68
2021/08/25 13:27:22;;;;;;;6.82;2.78;;;;;;;;;;4993919;28;20474;-69
2021/08/25 13:29:47;;;;;;;6.55;2.67;;;;;;;;;;5011442;28;20099;-68
2021/08/25 13:32:13;;;;;;;4.88;2.30;;;;;;;;;;5010475;28;20042;-69
2021/08/25 13:34:38;;;;;;;4.90;2.47;;;;;;;;;;5011787;28;20057;-67
2021/08/25 13:37:04;;;;;;;6.30;2.67;;;;;;;;;;5011339;28;20057;-69
2021/08/25 13:39:31;;;;;;;5.05;2.70;;;;;;;;;;5010355;28;20357;-69
2021/08/25 13:41:58;;;;;;;5.85;2.83;;;;;;;;;;5010341;28;20026;-69
2021/08/25 13:44:25;;;;;;;5.10;2.30;;;;;;;;;;5011301;28;20080;-68
2021/08/25 13:46:51;;;;;;;5.22;2.50;;;;;;;;;;5011113;28;20029;-67
2021/08/25 13:49:16;;;;;;;5.90;2.88;;;;;;;;;;4995519;28;20041;-68
2021/08/25 13:51:42;;;;;;;5.18;2.53;;;;;;;;;;5015221;28;20026;-71
2021/08/25 13:54:07;;;;;;;5.80;2.20;;;;;;;;;;5014327;28;20021;-69
2021/08/25 13:56:33;;;;;;;7.38;2.75;;;;;;;;;;5009590;28;20125;-67
2021/08/25 13:58:59;;;;;;;5.03;2.78;;;;;;;;;;5013944;28;20490;-69
2021/08/25 14:01:24;;;;;;;5.22;2.97;;;;;;;;;;5015328;28;20034;-70
2021/08/25 14:03:50;;;;;;;4.75;2.63;;;;;;;;;;5014853;28;20029;-70
2021/08/25 14:06:16;;;;;;;5.88;2.58;;;;;;;;;;5009729;28;20129;-71
2021/08/25 14:08:42;;;;;;;5.25;2.50;;;;;;;;;;5014435;28;20113;-68
2021/08/25 14:11:14;;;;;;;4.80;2.40;;;;;;;;;;5014805;28;20762;-69
2021/08/25 14:13:40;;;;;;;3.67;1.95;;;;;;;;;;5010721;28;20030;-69
2021/08/25 14:16:05;;;;;;;5.43;3.00;;;;;;;;;;5014462;28;20080;-70
2021/08/25 14:18:32;;;;;;;6.45;2.72;;;;;;;;;;5015026;28;20022;-68
2021/08/25 14:20:59;;;;;;;4.60;2.25;;;;;;;;;;4996344;28;20587;-67
2021/08/25 14:23:24;;;;;;;5.88;2.40;;;;;;;;;;5015056;28;20025;-68
2021/08/25 14:25:53;;;;;;;5.00;2.60;;;;;;;;;;5014578;28;20489;-67
2021/08/25 14:28:19;;;;;;;6.95;2.67;;;;;;;;;;5014840;28;20076;-68
2021/08/25 14:30:45;;;;;;;7.07;2.63;;;;;;;;;;5014531;28;20427;-68
2021/08/25 14:33:10;;;;;;;6.30;2.67;;;;;;;;;;5014320;28;20037;-68
2021/08/25 14:35:36;;;;;;;6.80;2.67;;;;;;;;;;5014456;28;20100;-67
2021/08/25 14:38:01;;;;;;;5.75;2.45;;;;;;;;;;5014035;28;20014;-68
2021/08/25 14:40:27;;;;;;;6.35;2.60;;;;;;;;;;5014600;28;20045;-70
2021/08/25 14:42:52;;;;;;;4.40;2.30;;;;;;;;;;5014942;28;20033;-69